Time;durP1;ratioP1;P1;durP2;ratioP2;P2;SDS_P1;SDS_P2;PMS_P1;PMS_P2;Temp;Humidity;BMP_temperature;BMP_pressure;BME280_temperature;BME280_humidity;BME280_pressure;Samples;Min_cycle;Max_cycle;Signal;HPM_P1;HPM_P2
2023/01/14 00:01:18;;;;;;;3.33;1.20;;;7.20;99.90;;;;;;5033711;28;20700;-47
2023/01/14 00:03:45;;;;;;;4.53;1.73;;;7.20;99.90;;;;;;5022491;28;20265;-48
2023/01/14 00:06:14;;;;;;;5.93;1.83;;;7.20;99.90;;;;;;5028580;28;20698;-51
2023/01/14 00:08:40;;;;;;;10.97;2.10;;;7.20;99.90;;;;;;5021439;28;20227;-45
2023/01/14 00:11:10;;;;;;;8.00;1.50;;;7.20;99.90;;;;;;5026874;28;20554;-43
2023/01/14 00:13:38;;;;;;;11.20;2.47;;;7.20;99.90;;;;;;5022812;28;20734;-60
2023/01/14 00:16:08;;;;;;;6.47;1.53;;;7.20;99.90;;;;;;5023017;28;20214;-55
2023/01/14 00:18:36;;;;;;;9.10;1.90;;;7.20;99.90;;;;;;5024994;28;20226;-61
2023/01/14 00:21:05;;;;;;;13.00;2.10;;;7.20;99.90;;;;;;5029416;28;20269;-48
2023/01/14 00:23:33;;;;;;;11.87;2.17;;;7.20;99.90;;;;;;5023403;28;20200;-59
2023/01/14 00:26:02;;;;;;;10.37;2.00;;;7.20;99.90;;;;;;5026072;28;20283;-42
2023/01/14 00:28:29;;;;;;;7.13;1.23;;;7.20;99.90;;;;;;5024355;28;20227;-57
2023/01/14 00:31:07;;;;;;;9.20;1.70;;;7.20;99.90;;;;;;5013376;28;20221;-51
2023/01/14 00:33:36;;;;;;;9.33;3.17;;;7.20;99.90;;;;;;5026919;28;20214;-58
2023/01/14 00:36:04;;;;;;;8.40;1.80;;;7.20;99.90;;;;;;5024157;28;20235;-43
2023/01/14 00:38:31;;;;;;;11.90;1.43;;;7.20;99.90;;;;;;5024454;28;20232;-58
2023/01/14 00:41:03;;;;;;;5.70;1.23;;;7.20;99.90;;;;;;5023163;28;20232;-45
2023/01/14 00:43:31;;;;;;;12.93;1.90;;;7.20;99.90;;;;;;5021806;28;20212;-59
2023/01/14 00:45:58;;;;;;;6.67;1.23;;;7.20;99.90;;;;;;5015173;28;20211;-49
2023/01/14 00:48:26;;;;;;;6.00;1.20;;;7.20;99.90;;;;;;5033642;28;20578;-56
2023/01/14 00:50:53;;;;;;;9.70;1.67;;;7.20;99.90;;;;;;5021546;28;20195;-42
2023/01/14 00:53:20;;;;;;;10.07;2.00;;;7.20;99.90;;;;;;5025391;28;20204;-54
2023/01/14 00:55:46;;;;;;;6.17;1.10;;;7.20;99.90;;;;;;5031946;28;20191;-46
2023/01/14 00:58:13;;;;;;;9.80;1.97;;;7.10;99.90;;;;;;5045047;28;20219;-43
2023/01/14 01:00:41;;;;;;;6.90;1.00;;;7.10;99.90;;;;;;5038918;28;20219;-47
2023/01/14 01:03:07;;;;;;;8.63;1.30;;;7.10;99.90;;;;;;5020779;28;20219;-44
2023/01/14 01:05:37;;;;;;;4.90;1.13;;;7.10;99.90;;;;;;5017833;28;20690;-58
2023/01/14 01:08:05;;;;;;;5.27;1.40;;;7.10;99.90;;;;;;5025067;28;20222;-42
2023/01/14 01:10:33;;;;;;;6.07;1.40;;;7.00;99.90;;;;;;5025433;28;20193;-58
2023/01/14 01:13:00;;;;;;;7.33;1.10;;;7.00;99.90;;;;;;5024106;28;20287;-42
2023/01/14 01:15:27;;;;;;;5.47;1.77;;;6.90;99.90;;;;;;5022154;28;20196;-57
2023/01/14 01:17:54;;;;;;;5.80;1.43;;;6.90;99.90;;;;;;5014839;28;20994;-43
2023/01/14 01:20:21;;;;;;;7.47;1.47;;;6.90;99.90;;;;;;5036211;28;20227;-59
2023/01/14 01:22:50;;;;;;;5.53;1.33;;;6.90;99.90;;;;;;5013572;28;20195;-43
2023/01/14 01:25:18;;;;;;;7.03;1.43;;;6.90;99.90;;;;;;5026249;28;20208;-55
2023/01/14 01:27:46;;;;;;;6.83;1.50;;;6.90;99.90;;;;;;5021777;28;20265;-45
2023/01/14 01:30:14;;;;;;;4.83;1.07;;;6.80;99.90;;;;;;5027208;28;20207;-43
2023/01/14 01:32:41;;;;;;;4.90;1.30;;;6.80;99.90;;;;;;5013460;28;20287;-48
2023/01/14 01:35:09;;;;;;;8.43;1.20;;;6.80;99.90;;;;;;5036367;28;20659;-45
2023/01/14 01:37:36;;;;;;;5.80;1.43;;;6.80;99.90;;;;;;5014620;28;20279;-60
2023/01/14 01:40:06;;;;;;;5.87;1.30;;;6.80;99.90;;;;;;5040073;28;20220;-50
2023/01/14 01:42:35;;;;;;;2.73;1.03;;;6.80;99.90;;;;;;5020211;28;20616;-58
2023/01/14 01:45:25;;;;;;;8.80;1.90;;;6.70;99.90;;;;;;5023928;28;20679;-47
2023/01/14 01:47:57;;;;;;;5.17;1.53;;;6.70;99.90;;;;;;5036785;28;20211;-47
2023/01/14 01:50:28;;;;;;;4.17;1.30;;;6.70;99.90;;;;;;5018620;28;20211;-55
2023/01/14 01:52:55;;;;;;;6.63;1.47;;;6.70;99.90;;;;;;5020114;28;20200;-43
2023/01/14 01:55:24;;;;;;;3.33;1.00;;;6.70;99.90;;;;;;5023542;28;20223;-57
2023/01/14 01:57:55;;;;;;;5.30;1.20;;;6.80;99.90;;;;;;5022098;28;20290;-45
2023/01/14 02:00:24;;;;;;;6.17;1.90;;;6.70;99.90;;;;;;5027890;28;20221;-59
2023/01/14 02:02:54;;;;;;;4.90;1.63;;;6.70;99.90;;;;;;5029127;28;20198;-45
2023/01/14 02:05:22;;;;;;;3.83;1.20;;;6.70;99.90;;;;;;5018628;28;20222;-56
2023/01/14 02:07:49;;;;;;;8.20;1.40;;;6.70;99.90;;;;;;5020385;28;20229;-43
2023/01/14 02:10:17;;;;;;;2.90;1.07;;;6.70;99.90;;;;;;5025638;28;20243;-48
2023/01/14 02:13:14;;;;;;;5.03;0.90;;;6.70;99.90;;;;;;5019540;28;20196;-43
2023/01/14 02:15:54;;;;;;;8.13;1.17;;;6.80;99.90;;;;;;5034216;28;20191;-48
2023/01/14 02:18:46;;;;;;;6.27;1.33;;;6.80;99.90;;;;;;5041345;28;20250;-57
2023/01/14 02:21:20;;;;;;;6.20;1.23;;;6.80;99.90;;;;;;5036024;28;20231;-45
2023/01/14 02:24:21;;;;;;;8.43;1.30;;;6.80;99.90;;;;;;5035413;28;20906;-44
2023/01/14 02:27:07;;;;;;;6.43;1.10;;;6.80;99.90;;;;;;5023488;28;20967;-42
2023/01/14 02:29:46;;;;;;;7.37;1.53;;;6.80;99.90;;;;;;5033483;28;20288;-56
2023/01/14 02:32:19;;;;;;;4.53;1.17;;;6.80;99.90;;;;;;5030168;28;20210;-44
2023/01/14 02:34:56;;;;;;;5.97;1.40;;;6.80;99.90;;;;;;5013639;28;20207;-47
2023/01/14 02:37:31;;;;;;;7.13;1.30;;;6.80;99.90;;;;;;5032301;28;20290;-60
2023/01/14 02:40:07;;;;;;;4.90;1.03;;;6.80;99.90;;;;;;5037926;28;20808;-42
2023/01/14 02:45:31;;;;;;;4.67;1.10;;;6.80;99.90;;;;;;5040449;28;20218;-57
2023/01/14 02:48:00;;;;;;;4.03;1.23;;;6.80;99.90;;;;;;5056970;28;20227;-47
2023/01/14 02:50:33;;;;;;;5.37;1.20;;;6.80;99.90;;;;;;5027333;28;20589;-57
2023/01/14 02:53:06;;;;;;;8.50;1.30;;;6.80;99.90;;;;;;5039811;28;20287;-42
2023/01/14 02:55:37;;;;;;;7.30;1.40;;;6.80;99.90;;;;;;5017253;28;20199;-56
2023/01/14 02:58:33;;;;;;;7.10;1.37;;;6.80;99.90;;;;;;5023437;28;20228;-53
2023/01/14 03:01:15;;;;;;;3.80;1.20;;;6.80;99.90;;;;;;5028722;28;20224;-42
2023/01/14 03:03:58;;;;;;;7.10;1.17;;;6.80;99.90;;;;;;5034712;28;20195;-47
2023/01/14 03:06:36;;;;;;;5.00;1.13;;;6.80;99.90;;;;;;5013916;28;20211;-60
2023/01/14 03:09:09;;;;;;;8.17;1.40;;;6.80;99.90;;;;;;5021602;28;20230;-48
2023/01/14 03:11:44;;;;;;;5.60;1.17;;;6.80;99.90;;;;;;5022122;28;20196;-58
2023/01/14 03:14:19;;;;;;;3.13;1.07;;;6.80;99.90;;;;;;5019504;28;20253;-43
2023/01/14 03:16:54;;;;;;;2.77;1.13;;;6.80;99.90;;;;;;5018786;28;20226;-43
2023/01/14 03:19:25;;;;;;;6.07;1.20;;;6.80;99.90;;;;;;5021887;28;20254;-57
2023/01/14 03:21:56;;;;;;;3.27;1.53;;;6.90;99.90;;;;;;5025077;28;20346;-44
2023/01/14 03:24:29;;;;;;;5.73;1.00;;;6.80;99.90;;;;;;5024861;28;20208;-56
2023/01/14 03:27:00;;;;;;;2.97;0.90;;;6.90;99.90;;;;;;5035619;28;20911;-43
2023/01/14 03:29:32;;;;;;;4.93;1.00;;;6.90;99.90;;;;;;5025166;28;20222;-56
2023/01/14 03:32:08;;;;;;;6.50;1.23;;;6.90;99.90;;;;;;5029797;28;20195;-43
2023/01/14 03:34:41;;;;;;;3.70;0.97;;;6.90;99.90;;;;;;5020712;28;20266;-57
2023/01/14 03:37:12;;;;;;;4.37;1.13;;;6.90;99.90;;;;;;5030889;28;20996;-44
2023/01/14 03:39:42;;;;;;;2.23;1.17;;;6.90;99.90;;;;;;5013851;28;20219;-43
2023/01/14 03:42:20;;;;;;;5.03;1.07;;;6.80;99.90;;;;;;5030059;28;20220;-43
2023/01/14 03:44:58;;;;;;;4.80;1.07;;;6.90;99.90;;;;;;5024334;28;20204;-41
2023/01/14 03:47:28;;;;;;;3.93;0.80;;;6.80;99.90;;;;;;5025392;28;20670;-56
2023/01/14 03:49:57;;;;;;;5.03;0.77;;;6.90;99.90;;;;;;5025733;28;20196;-43
2023/01/14 03:52:40;;;;;;;4.33;1.23;;;6.80;99.90;;;;;;5025408;28;20196;-57
2023/01/14 03:55:16;;;;;;;4.67;1.13;;;6.80;99.90;;;;;;5016302;28;20251;-45
2023/01/14 03:57:49;;;;;;;6.60;1.10;;;6.90;99.90;;;;;;5026297;28;20220;-43
2023/01/14 04:00:23;;;;;;;4.87;0.90;;;6.90;99.90;;;;;;5026468;28;20211;-44
2023/01/14 04:02:52;;;;;;;1.40;0.63;;;6.90;99.90;;;;;;5032852;28;20273;-43
2023/01/14 04:05:19;;;;;;;1.80;0.87;;;6.90;99.90;;;;;;5029296;28;20235;-56
2023/01/14 04:07:49;;;;;;;3.17;1.33;;;6.90;99.90;;;;;;5023660;28;20291;-43
2023/01/14 04:10:17;;;;;;;4.57;0.90;;;6.90;99.90;;;;;;5017316;28;20231;-45
2023/01/14 04:15:24;;;;;;;2.17;0.53;;;6.90;99.90;;;;;;5024119;28;20292;-58
2023/01/14 04:17:52;;;;;;;2.60;1.00;;;6.90;99.90;;;;;;5023727;28;20215;-43
2023/01/14 04:20:19;;;;;;;5.53;1.00;;;6.90;99.90;;;;;;5026369;28;20199;-58
2023/01/14 04:22:46;;;;;;;2.23;0.73;;;6.90;99.90;;;;;;5022814;28;20208;-44
2023/01/14 04:25:13;;;;;;;3.13;0.90;;;6.90;99.90;;;;;;5014501;28;20204;-42
2023/01/14 04:27:40;;;;;;;3.47;0.53;;;6.90;99.90;;;;;;5021219;28;21475;-45
2023/01/14 04:30:08;;;;;;;1.20;0.57;;;6.90;99.90;;;;;;5028855;28;20246;-43
2023/01/14 04:32:35;;;;;;;4.97;1.00;;;6.90;99.90;;;;;;5026022;28;20265;-56
2023/01/14 04:35:04;;;;;;;2.50;1.33;;;6.90;99.90;;;;;;5034460;28;20231;-53
2023/01/14 04:37:31;;;;;;;3.60;0.93;;;6.90;99.90;;;;;;5023672;28;20659;-56
2023/01/14 04:39:58;;;;;;;4.67;0.77;;;6.90;99.90;;;;;;5014696;28;20218;-42
2023/01/14 04:42:27;;;;;;;2.93;0.87;;;6.90;99.90;;;;;;5032117;28;20224;-58
2023/01/14 04:44:54;;;;;;;3.90;0.77;;;6.90;99.90;;;;;;5022310;28;20919;-42
2023/01/14 04:47:21;;;;;;;3.47;0.67;;;6.90;99.90;;;;;;5022483;28;20208;-59
2023/01/14 04:49:47;;;;;;;3.40;0.83;;;6.90;99.90;;;;;;5039018;28;20723;-42
2023/01/14 04:52:15;;;;;;;5.03;1.07;;;6.80;99.90;;;;;;5035459;28;20622;-49
2023/01/14 04:54:43;;;;;;;1.93;0.80;;;6.80;99.90;;;;;;5021988;28;20200;-48
2023/01/14 04:57:11;;;;;;;4.70;0.77;;;6.70;99.90;;;;;;5021551;28;20212;-43
2023/01/14 04:59:38;;;;;;;4.77;0.90;;;6.70;99.90;;;;;;5028366;28;20220;-47
2023/01/14 05:02:05;;;;;;;3.43;1.10;;;6.70;99.90;;;;;;5029840;28;20755;-47
2023/01/14 05:04:32;;;;;;;2.63;0.80;;;6.70;99.90;;;;;;5025030;28;20200;-57
2023/01/14 05:07:01;;;;;;;4.63;1.13;;;6.70;99.90;;;;;;5024868;28;20196;-52
2023/01/14 05:09:30;;;;;;;1.57;0.80;;;6.70;99.90;;;;;;5023899;28;20306;-51
2023/01/14 05:11:56;;;;;;;1.60;0.90;;;6.70;99.90;;;;;;5012171;28;20216;-42
2023/01/14 05:14:23;;;;;;;4.77;1.03;;;6.70;99.90;;;;;;5021431;28;20207;-56
2023/01/14 05:16:50;;;;;;;2.70;0.90;;;6.70;99.90;;;;;;5022631;28;20196;-41
2023/01/14 05:19:17;;;;;;;4.50;1.00;;;6.70;99.90;;;;;;5024975;28;20231;-45
2023/01/14 05:21:44;;;;;;;6.00;1.03;;;6.60;99.90;;;;;;5021509;28;20740;-47
2023/01/14 05:24:11;;;;;;;7.13;1.23;;;6.60;99.90;;;;;;5025609;28;20212;-41
2023/01/14 05:26:39;;;;;;;4.37;1.00;;;6.70;99.90;;;;;;5008064;28;22146;-58
2023/01/14 05:29:05;;;;;;;5.20;1.10;;;6.70;99.90;;;;;;5028589;28;20230;-45
2023/01/14 05:31:32;;;;;;;7.33;1.50;;;6.60;99.90;;;;;;5027275;28;20200;-57
2023/01/14 05:33:59;;;;;;;6.53;1.87;;;6.70;99.90;;;;;;5028113;28;20196;-42
2023/01/14 05:36:27;;;;;;;7.63;1.73;;;6.70;99.90;;;;;;5023585;28;20200;-57
2023/01/14 05:38:53;;;;;;;6.27;1.83;;;6.70;99.90;;;;;;5023148;28;20235;-51
2023/01/14 05:41:21;;;;;;;10.73;2.03;;;6.70;99.90;;;;;;5023815;28;20208;-56
2023/01/14 05:46:33;;;;;;;6.47;2.23;;;6.70;99.90;;;;;;5035032;28;20200;-57
2023/01/14 05:49:00;;;;;;;8.47;1.90;;;6.70;99.90;;;;;;5025792;28;20222;-45
2023/01/14 05:51:27;;;;;;;10.70;2.40;;;6.80;99.90;;;;;;5022824;28;20200;-57
2023/01/14 05:53:54;;;;;;;7.27;2.67;;;6.80;99.90;;;;;;5023080;28;20188;-51
2023/01/14 05:56:21;;;;;;;10.70;2.33;;;6.80;99.90;;;;;;5024110;28;20231;-56
2023/01/14 05:58:50;;;;;;;9.93;2.57;;;6.80;99.90;;;;;;5009586;28;20252;-46
2023/01/14 06:06:48;;;;;;;6.63;2.43;;;6.90;99.90;;;;;;5021087;28;20375;-46
2023/01/14 06:09:17;;;;;;;8.03;3.20;;;6.80;99.90;;;;;;5028097;28;20762;-42
2023/01/14 06:11:47;;;;;;;6.73;2.60;;;6.90;99.90;;;;;;5039913;28;20194;-42
2023/01/14 06:14:15;;;;;;;15.07;3.40;;;6.90;99.90;;;;;;5023449;28;20235;-42
2023/01/14 06:16:42;;;;;;;11.63;3.13;;;6.90;99.90;;;;;;5022310;28;20183;-43
2023/01/14 06:19:10;;;;;;;13.00;3.57;;;6.90;99.90;;;;;;5026265;28;20246;-49
2023/01/14 06:21:37;;;;;;;11.93;3.73;;;6.90;99.90;;;;;;5029774;28;20242;-58
2023/01/14 06:24:05;;;;;;;16.03;4.00;;;6.90;99.90;;;;;;5031831;28;20206;-42
2023/01/14 06:26:34;;;;;;;9.07;3.23;;;6.90;99.90;;;;;;5021303;28;20621;-56
2023/01/14 06:29:03;;;;;;;9.00;3.93;;;6.90;99.90;;;;;;5024125;28;20255;-46
2023/01/14 06:31:31;;;;;;;12.37;3.87;;;6.90;99.90;;;;;;5014506;28;20215;-56
2023/01/14 06:34:01;;;;;;;7.13;3.60;;;6.90;99.90;;;;;;5026344;28;20223;-43
2023/01/14 06:36:28;;;;;;;9.23;4.13;;;7.00;99.90;;;;;;5020137;28;20204;-56
2023/01/14 06:38:55;;;;;;;9.33;3.50;;;6.90;99.90;;;;;;5022664;28;20234;-49
2023/01/14 06:41:22;;;;;;;12.73;4.40;;;7.00;99.90;;;;;;5022162;28;20225;-58
2023/01/14 06:43:50;;;;;;;9.40;3.90;;;6.90;99.90;;;;;;5027482;28;20201;-46
2023/01/14 06:46:17;;;;;;;13.87;3.43;;;7.00;99.90;;;;;;5018598;28;20684;-47
2023/01/14 06:48:45;;;;;;;8.83;3.60;;;7.00;99.90;;;;;;5024534;28;20223;-46
2023/01/14 06:51:14;;;;;;;11.53;3.10;;;7.00;99.90;;;;;;5030865;28;20206;-43
2023/01/14 06:54:03;;;;;;;12.07;3.53;;;7.00;99.90;;;;;;5029921;28;20211;-43
2023/01/14 06:56:30;;;;;;;14.40;3.10;;;7.00;99.90;;;;;;5021379;28;20306;-58
2023/01/14 06:58:57;;;;;;;9.73;3.17;;;7.00;99.90;;;;;;5022443;28;20227;-43
2023/01/14 07:01:24;;;;;;;11.33;3.60;;;7.00;99.90;;;;;;5006580;28;20216;-59
2023/01/14 07:03:52;;;;;;;6.80;2.40;;;7.00;99.90;;;;;;5033536;28;20187;-45
2023/01/14 07:06:19;;;;;;;11.83;3.00;;;7.00;99.90;;;;;;5023585;28;20214;-55
2023/01/14 07:08:46;;;;;;;5.60;2.30;;;7.00;99.90;;;;;;5018936;28;20262;-48
2023/01/14 07:11:13;;;;;;;14.13;2.83;;;7.00;99.90;;;;;;5029546;28;20195;-43
2023/01/14 07:13:40;;;;;;;12.00;3.20;;;7.00;99.90;;;;;;5026149;28;20410;-45
2023/01/14 07:16:07;;;;;;;10.20;2.60;;;7.00;99.90;;;;;;5030402;28;20257;-44
2023/01/14 07:18:34;;;;;;;9.53;3.10;;;7.00;99.90;;;;;;5017883;28;20241;-58
2023/01/14 07:21:03;;;;;;;9.33;2.07;;;7.00;99.90;;;;;;5042533;28;20202;-53
2023/01/14 07:23:30;;;;;;;6.83;1.70;;;7.00;99.90;;;;;;5027129;28;20215;-59
2023/01/14 07:25:57;;;;;;;8.57;2.77;;;7.00;99.90;;;;;;5029181;28;20192;-48
2023/01/14 07:28:24;;;;;;;7.13;2.33;;;7.00;99.90;;;;;;5028498;28;20226;-56
2023/01/14 07:30:51;;;;;;;10.90;2.07;;;7.00;99.90;;;;;;5027920;28;20456;-43
2023/01/14 07:33:17;;;;;;;8.37;2.23;;;6.90;99.90;;;;;;5017526;28;20221;-44
2023/01/14 07:35:44;;;;;;;8.90;1.93;;;6.90;99.90;;;;;;5037704;28;20933;-46
2023/01/14 07:38:12;;;;;;;5.67;2.37;;;6.90;99.90;;;;;;5028680;28;20306;-48
2023/01/14 07:40:39;;;;;;;11.97;2.77;;;6.80;99.90;;;;;;5026035;28;20911;-49
2023/01/14 07:43:06;;;;;;;8.37;2.53;;;6.80;99.90;;;;;;5029773;28;20658;-43
2023/01/14 07:45:33;;;;;;;10.30;2.67;;;6.70;99.90;;;;;;5027051;28;20210;-58
2023/01/14 07:48:00;;;;;;;14.57;2.40;;;6.70;99.90;;;;;;5029656;28;20219;-43
2023/01/14 07:50:27;;;;;;;10.23;2.27;;;6.70;99.90;;;;;;5014528;28;20206;-58
2023/01/14 07:52:55;;;;;;;12.50;2.57;;;6.70;99.90;;;;;;5043452;28;20245;-44
2023/01/14 07:55:23;;;;;;;10.43;2.93;;;6.60;99.90;;;;;;5033947;28;20215;-59
2023/01/14 07:57:51;;;;;;;12.67;2.87;;;6.60;99.90;;;;;;5025789;28;20226;-48
2023/01/14 08:00:19;;;;;;;13.07;2.83;;;6.60;99.90;;;;;;5029965;28;20589;-56
2023/01/14 08:02:46;;;;;;;11.37;3.10;;;6.50;99.90;;;;;;5026127;28;20220;-48
2023/01/14 08:05:14;;;;;;;12.33;2.80;;;6.50;99.90;;;;;;5025573;28;20199;-43
2023/01/14 08:07:40;;;;;;;13.67;3.07;;;6.50;99.90;;;;;;5035010;28;20245;-44
2023/01/14 08:10:09;;;;;;;14.77;3.33;;;6.50;99.90;;;;;;5029291;28;20215;-43
2023/01/14 08:12:37;;;;;;;7.30;2.50;;;6.50;99.90;;;;;;5025684;28;20194;-58
2023/01/14 08:15:07;;;;;;;12.33;3.30;;;6.50;99.90;;;;;;5029770;28;20207;-43
2023/01/14 08:17:34;;;;;;;9.23;3.10;;;6.50;99.90;;;;;;5026257;28;20220;-57
2023/01/14 08:20:01;;;;;;;11.53;2.97;;;6.50;99.90;;;;;;5017919;28;20218;-49
2023/01/14 08:22:29;;;;;;;10.53;3.13;;;6.50;99.90;;;;;;5030901;28;20266;-57
2023/01/14 08:24:56;;;;;;;10.73;3.37;;;6.40;99.90;;;;;;5032161;28;20195;-45
2023/01/14 08:27:23;;;;;;;11.67;2.83;;;6.50;99.90;;;;;;5027616;28;20295;-58
2023/01/14 08:29:51;;;;;;;11.73;3.30;;;6.50;99.90;;;;;;5024090;28;20203;-43
2023/01/14 08:32:18;;;;;;;13.20;3.40;;;6.50;99.90;;;;;;5034000;28;20552;-53
2023/01/14 08:34:45;;;;;;;11.50;3.50;;;6.50;99.90;;;;;;5030490;28;20188;-46
2023/01/14 08:37:12;;;;;;;12.97;3.23;;;6.40;99.90;;;;;;5019261;28;20265;-53
2023/01/14 08:39:39;;;;;;;13.33;2.60;;;6.50;99.90;;;;;;5025163;28;20310;-49
2023/01/14 08:42:06;;;;;;;15.20;3.27;;;6.40;99.90;;;;;;5030304;28;20215;-44
2023/01/14 08:44:33;;;;;;;8.97;3.27;;;6.40;99.90;;;;;;5023042;28;20192;-58
2023/01/14 08:47:02;;;;;;;8.83;2.97;;;6.40;99.90;;;;;;5024907;28;20270;-51
2023/01/14 08:49:31;;;;;;;10.80;3.70;;;6.40;99.90;;;;;;5023713;28;20228;-56
2023/01/14 08:51:58;;;;;;;18.73;3.80;;;6.50;99.90;;;;;;5016315;28;20205;-43
2023/01/14 08:54:24;;;;;;;14.63;3.77;;;6.50;99.90;;;;;;5035616;28;20196;-58
2023/01/14 08:56:55;;;;;;;12.27;3.90;;;6.50;99.90;;;;;;5026643;28;20210;-55
2023/01/14 08:59:22;;;;;;;14.73;4.57;;;6.50;99.90;;;;;;5023411;28;20212;-46
2023/01/14 09:01:48;;;;;;;15.47;4.07;;;6.50;99.90;;;;;;5026625;28;20211;-51
2023/01/14 09:04:17;;;;;;;15.43;3.80;;;6.60;99.90;;;;;;5028306;28;20730;-46
2023/01/14 09:17:42;;;;;;;16.27;3.87;;;6.70;99.90;;;;;;5021843;28;20287;-43
2023/01/14 09:20:13;;;;;;;10.90;3.77;;;6.70;99.90;;;;;;5021503;28;20604;-58
2023/01/14 09:22:40;;;;;;;12.53;4.90;;;6.70;99.90;;;;;;5012264;28;20219;-49
2023/01/14 09:25:08;;;;;;;17.90;4.40;;;6.70;99.90;;;;;;5027335;28;20262;-57
2023/01/14 09:27:35;;;;;;;17.67;4.23;;;6.80;99.90;;;;;;5025220;28;20204;-45
2023/01/14 09:30:02;;;;;;;16.20;4.00;;;6.80;99.90;;;;;;5022922;28;20213;-58
2023/01/14 09:32:29;;;;;;;18.47;4.57;;;6.80;99.90;;;;;;5031264;28;20222;-43
2023/01/14 09:34:56;;;;;;;15.93;4.00;;;6.80;99.90;;;;;;5028742;28;20207;-59
2023/01/14 09:37:25;;;;;;;16.63;4.10;;;6.80;99.90;;;;;;5041308;28;20214;-46
2023/01/14 09:39:52;;;;;;;15.97;4.07;;;6.80;99.90;;;;;;5013981;28;20582;-58
2023/01/14 09:42:26;;;;;;;14.80;4.10;;;6.80;99.90;;;;;;5031475;28;20231;-43
2023/01/14 09:44:57;;;;;;;15.50;4.30;;;6.90;99.90;;;;;;5022568;28;20206;-57
2023/01/14 09:47:24;;;;;;;8.57;4.07;;;6.90;99.90;;;;;;5023547;28;20203;-48
2023/01/14 09:49:51;;;;;;;15.23;5.00;;;6.90;99.90;;;;;;5022481;28;20208;-57
2023/01/14 09:52:38;;;;;;;16.93;4.97;;;6.90;99.90;;;;;;5022902;28;20991;-50
2023/01/14 09:55:14;;;;;;;12.43;4.37;;;6.90;99.90;;;;;;5014930;28;20207;-44
2023/01/14 09:57:51;;;;;;;15.17;4.03;;;6.90;99.90;;;;;;5024445;28;20196;-52
2023/01/14 10:00:31;;;;;;;14.07;4.63;;;6.90;99.90;;;;;;5025188;28;20218;-51
2023/01/14 10:03:17;;;;;;;13.43;4.27;;;6.90;99.90;;;;;;5023144;28;20219;-56
2023/01/14 10:05:51;;;;;;;15.40;3.83;;;6.90;99.90;;;;;;5023850;28;20246;-58
2023/01/14 10:08:22;;;;;;;13.43;4.40;;;7.00;99.90;;;;;;5023335;28;20208;-46
2023/01/14 10:10:50;;;;;;;13.10;4.93;;;7.00;99.90;;;;;;5007818;28;20686;-57
2023/01/14 10:13:22;;;;;;;14.60;4.57;;;7.00;99.90;;;;;;5032452;28;20184;-48
2023/01/14 10:15:52;;;;;;;15.83;4.60;;;7.00;99.90;;;;;;5022444;28;20204;-56
2023/01/14 10:18:24;;;;;;;12.17;4.60;;;7.00;99.90;;;;;;5021639;28;21375;-51
2023/01/14 10:20:55;;;;;;;19.53;5.40;;;7.00;99.90;;;;;;5022329;28;20697;-56
2023/01/14 10:23:27;;;;;;;15.80;5.47;;;7.00;99.90;;;;;;5023337;28;20235;-49
2023/01/14 10:25:56;;;;;;;11.20;4.57;;;7.00;99.90;;;;;;5018620;28;20260;-57
2023/01/14 10:28:26;;;;;;;16.10;4.47;;;7.10;99.90;;;;;;5027382;28;20219;-51
2023/01/14 10:30:54;;;;;;;17.77;5.60;;;7.10;99.90;;;;;;5026800;28;20257;-57
2023/01/14 10:33:22;;;;;;;12.10;4.63;;;7.10;99.90;;;;;;5026880;28;20215;-50
2023/01/14 10:35:55;;;;;;;15.40;5.00;;;7.10;99.90;;;;;;5019926;28;20208;-58
2023/01/14 10:38:25;;;;;;;18.07;5.37;;;7.10;99.90;;;;;;5042543;28;20693;-47
2023/01/14 10:40:56;;;;;;;15.87;5.17;;;7.10;99.90;;;;;;5018368;28;20230;-59
2023/01/14 10:43:30;;;;;;;23.70;5.43;;;7.10;99.90;;;;;;5031899;28;20230;-45
2023/01/14 10:45:58;;;;;;;15.80;4.33;;;7.20;99.90;;;;;;5021946;28;20666;-58
2023/01/14 10:48:26;;;;;;;14.57;4.83;;;7.20;99.90;;;;;;5023924;28;20751;-44
2023/01/14 10:50:53;;;;;;;10.97;4.10;;;7.20;99.90;;;;;;5028460;28;20215;-56
2023/01/14 10:53:22;;;;;;;17.10;4.07;;;7.20;99.90;;;;;;5042305;28;20204;-49
2023/01/14 10:56:02;;;;;;;23.10;4.63;;;7.20;99.90;;;;;;5012679;28;20208;-61
2023/01/14 10:58:35;;;;;;;17.93;4.30;;;7.30;99.90;;;;;;5036262;28;20224;-46
2023/01/14 11:01:05;;;;;;;15.97;5.07;;;7.30;99.90;;;;;;5027106;28;20194;-51
2023/01/14 11:03:35;;;;;;;17.63;4.13;;;7.30;99.90;;;;;;5032456;28;20717;-52
2023/01/14 11:06:05;;;;;;;15.13;4.17;;;7.30;99.90;;;;;;5016740;28;20203;-44
2023/01/14 11:08:35;;;;;;;21.03;4.90;;;7.30;99.90;;;;;;5023911;28;20220;-49
2023/01/14 11:11:06;;;;;;;17.53;4.70;;;7.30;99.90;;;;;;5019928;28;20250;-45
2023/01/14 11:13:41;;;;;;;15.43;3.70;;;7.30;99.90;;;;;;5012178;28;20223;-43
2023/01/14 11:16:28;;;;;;;10.53;3.73;;;7.30;99.90;;;;;;5034985;28;20191;-42
2023/01/14 11:18:57;;;;;;;16.87;4.53;;;7.40;99.90;;;;;;5020627;28;20224;-57
2023/01/14 11:21:25;;;;;;;11.07;3.80;;;7.40;99.90;;;;;;5021574;28;20203;-45
2023/01/14 11:24:29;;;;;;;12.90;3.37;;;7.40;99.90;;;;;;5021801;28;20231;-42
2023/01/14 11:27:06;;;;;;;18.27;3.67;;;7.40;99.90;;;;;;5006531;28;20270;-59
2023/01/14 11:29:36;;;;;;;16.30;3.83;;;7.40;99.90;;;;;;5031007;28;20593;-50
2023/01/14 11:32:11;;;;;;;13.33;3.67;;;7.40;99.90;;;;;;5028276;28;20206;-49
2023/01/14 11:34:42;;;;;;;11.13;3.40;;;7.40;99.90;;;;;;5034722;28;20738;-47
2023/01/14 11:37:38;;;;;;;15.87;3.73;;;7.40;99.90;;;;;;5029467;28;20211;-42
2023/01/14 11:40:07;;;;;;;17.73;3.23;;;7.40;99.90;;;;;;5019367;28;20279;-45
2023/01/14 11:42:38;;;;;;;11.20;3.13;;;7.40;99.90;;;;;;5022201;28;20192;-46
2023/01/14 11:45:16;;;;;;;11.67;3.20;;;7.40;99.90;;;;;;5009657;28;20962;-44
2023/01/14 11:47:48;;;;;;;8.30;3.63;;;7.40;99.90;;;;;;5027762;28;20671;-58
2023/01/14 11:50:19;;;;;;;11.17;2.73;;;7.40;99.90;;;;;;5021902;28;20274;-49
2023/01/14 11:53:04;;;;;;;14.17;2.77;;;7.40;99.90;;;;;;5023026;28;20283;-56
2023/01/14 11:55:34;;;;;;;13.53;3.00;;;7.40;99.90;;;;;;5023472;28;20192;-46
2023/01/14 11:58:10;;;;;;;16.13;3.03;;;7.40;99.90;;;;;;5023028;28;20973;-47
2023/01/14 12:00:40;;;;;;;12.83;2.57;;;7.40;99.90;;;;;;5021024;28;20222;-46
2023/01/14 12:03:18;;;;;;;11.47;2.43;;;7.30;99.90;;;;;;5032244;28;20286;-44
2023/01/14 12:05:45;;;;;;;17.77;3.73;;;7.30;99.90;;;;;;5045398;28;20207;-58
2023/01/14 12:08:17;;;;;;;11.97;2.53;;;7.30;99.90;;;;;;5026310;28;20233;-42
2023/01/14 12:10:47;;;;;;;7.63;2.10;;;7.30;99.90;;;;;;5043406;28;20901;-49
2023/01/14 12:18:57;;;;;;;10.73;2.77;;;7.10;99.90;;;;;;5030644;28;20993;-44
2023/01/14 12:21:28;;;;;;;7.30;2.43;;;7.10;99.90;;;;;;5039411;28;20227;-56
2023/01/14 12:24:00;;;;;;;10.67;2.53;;;7.10;99.90;;;;;;5030350;28;20216;-43
2023/01/14 12:26:38;;;;;;;12.07;2.67;;;7.00;99.90;;;;;;5043877;28;20200;-56
2023/01/14 12:29:14;;;;;;;11.80;2.40;;;7.00;99.90;;;;;;5045768;28;20223;-46
2023/01/14 12:31:46;;;;;;;7.57;2.53;;;6.90;99.90;;;;;;5020203;28;20441;-46
2023/01/14 12:34:21;;;;;;;10.60;2.60;;;6.90;99.90;;;;;;5034957;28;20291;-47
2023/01/14 12:36:53;;;;;;;10.70;2.10;;;6.90;99.90;;;;;;5021518;28;20969;-44
2023/01/14 12:45:45;;;;;;;7.23;1.90;;;6.80;99.90;;;;;;5025915;28;20915;-57
2023/01/14 12:48:17;;;;;;;7.80;1.90;;;6.70;99.90;;;;;;5015558;28;20698;-42
2023/01/14 12:50:49;;;;;;;10.33;1.83;;;6.70;99.90;;;;;;5028327;28;21017;-47
2023/01/14 12:53:21;;;;;;;6.93;2.03;;;6.60;99.90;;;;;;5038840;28;20204;-43
2023/01/14 12:55:50;;;;;;;10.00;2.53;;;6.60;99.90;;;;;;5020291;28;20216;-42
2023/01/14 12:58:21;;;;;;;10.80;2.20;;;6.60;99.90;;;;;;5026069;28;20220;-48
2023/01/14 13:00:55;;;;;;;8.03;2.27;;;6.50;99.90;;;;;;5024129;28;20305;-43
2023/01/14 13:03:30;;;;;;;8.33;2.43;;;6.50;99.90;;;;;;5017848;28;20218;-57
2023/01/14 13:06:27;;;;;;;9.83;2.50;;;6.50;99.90;;;;;;5032531;28;20234;-48
2023/01/14 13:08:57;;;;;;;6.43;1.80;;;6.50;99.90;;;;;;5036197;28;20290;-47
2023/01/14 13:11:27;;;;;;;4.80;1.70;;;6.50;99.90;;;;;;5036352;28;20556;-57
2023/01/14 13:13:56;;;;;;;12.37;2.37;;;6.50;99.90;;;;;;5023303;28;20192;-46
2023/01/14 13:16:37;;;;;;;5.00;1.37;;;6.50;99.90;;;;;;5032752;28;20200;-57
2023/01/14 13:19:06;;;;;;;6.63;2.20;;;6.50;99.90;;;;;;5017514;28;20338;-44
2023/01/14 13:21:56;;;;;;;7.07;1.83;;;6.50;99.90;;;;;;5024591;28;20204;-57
2023/01/14 13:24:35;;;;;;;5.73;2.37;;;6.50;99.90;;;;;;5037452;28;20265;-56
2023/01/14 13:27:25;;;;;;;5.90;1.80;;;6.50;99.90;;;;;;5021929;28;20203;-41
2023/01/14 13:30:26;;;;;;;6.70;2.03;;;6.50;99.90;;;;;;5022793;28;20192;-42
2023/01/14 13:33:07;;;;;;;6.63;2.00;;;6.50;99.90;;;;;;5001185;28;20211;-42
2023/01/14 13:35:35;;;;;;;10.40;2.00;;;6.50;99.90;;;;;;5032907;28;20227;-56
2023/01/14 13:38:03;;;;;;;8.17;2.13;;;6.50;99.90;;;;;;5026446;28;20228;-41
2023/01/14 13:40:35;;;;;;;6.43;2.23;;;6.50;99.90;;;;;;5023273;28;20200;-47
2023/01/14 13:43:05;;;;;;;5.23;2.20;;;6.40;99.90;;;;;;5022040;28;20203;-45
2023/01/14 13:45:36;;;;;;;5.83;1.40;;;6.40;99.90;;;;;;5023348;28;20200;-56
2023/01/14 13:48:15;;;;;;;3.90;1.90;;;6.40;99.90;;;;;;5008108;28;20247;-47